sensor_id;sensor_type;location;lat;lon;timestamp;P1;durP1;ratioP1;P2;durP2;ratioP2
49296;SDS011;35163;48.878;18.040;2023-09-07T00:01:34;10.52;;;5.82;;
49296;SDS011;35163;48.878;18.040;2023-09-07T00:04:01;15.55;;;6.43;;
49296;SDS011;35163;48.878;18.040;2023-09-07T00:06:30;10.90;;;6.15;;
49296;SDS011;35163;48.878;18.040;2023-09-07T00:08:56;13.77;;;5.82;;
49296;SDS011;35163;48.878;18.040;2023-09-07T00:11:23;11.82;;;6.32;;
49296;SDS011;35163;48.878;18.040;2023-09-07T00:13:50;15.20;;;6.38;;
49296;SDS011;35163;48.878;18.040;2023-09-07T00:16:17;12.50;;;6.85;;
49296;SDS011;35163;48.878;18.040;2023-09-07T00:18:44;13.15;;;6.38;;
49296;SDS011;35163;48.878;18.040;2023-09-07T00:21:11;10.63;;;6.10;;
49296;SDS011;35163;48.878;18.040;2023-09-07T00:23:39;10.00;;;6.07;;
49296;SDS011;35163;48.878;18.040;2023-09-07T00:26:06;11.90;;;5.78;;
49296;SDS011;35163;48.878;18.040;2023-09-07T00:28:33;12.23;;;6.82;;
49296;SDS011;35163;48.878;18.040;2023-09-07T00:31:00;11.18;;;6.10;;
49296;SDS011;35163;48.878;18.040;2023-09-07T00:33:27;13.00;;;6.07;;
49296;SDS011;35163;48.878;18.040;2023-09-07T00:35:54;12.93;;;6.30;;
49296;SDS011;35163;48.878;18.040;2023-09-07T00:38:21;16.88;;;7.00;;
49296;SDS011;35163;48.878;18.040;2023-09-07T00:40:48;12.07;;;6.57;;
49296;SDS011;35163;48.878;18.040;2023-09-07T00:43:14;11.38;;;6.28;;
49296;SDS011;35163;48.878;18.040;2023-09-07T00:45:41;15.68;;;6.28;;
49296;SDS011;35163;48.878;18.040;2023-09-07T00:48:08;13.77;;;6.20;;
49296;SDS011;35163;48.878;18.040;2023-09-07T00:50:35;14.73;;;6.43;;
49296;SDS011;35163;48.878;18.040;2023-09-07T00:53:02;12.43;;;6.35;;
49296;SDS011;35163;48.878;18.040;2023-09-07T00:55:29;17.20;;;7.90;;
49296;SDS011;35163;48.878;18.040;2023-09-07T00:57:59;11.98;;;6.20;;
49296;SDS011;35163;48.878;18.040;2023-09-07T01:00:27;11.77;;;6.63;;
49296;SDS011;35163;48.878;18.040;2023-09-07T01:02:54;17.48;;;7.18;;
49296;SDS011;35163;48.878;18.040;2023-09-07T01:05:24;13.35;;;6.88;;
49296;SDS011;35163;48.878;18.040;2023-09-07T01:08:00;12.13;;;6.85;;
49296;SDS011;35163;48.878;18.040;2023-09-07T01:10:36;10.82;;;6.63;;
49296;SDS011;35163;48.878;18.040;2023-09-07T01:13:02;13.82;;;6.50;;
49296;SDS011;35163;48.878;18.040;2023-09-07T01:15:29;12.88;;;6.85;;
49296;SDS011;35163;48.878;18.040;2023-09-07T01:17:56;13.75;;;7.07;;
49296;SDS011;35163;48.878;18.040;2023-09-07T01:20:45;14.40;;;7.18;;
49296;SDS011;35163;48.878;18.040;2023-09-07T01:23:13;15.10;;;7.20;;
49296;SDS011;35163;48.878;18.040;2023-09-07T01:25:40;15.95;;;6.68;;
49296;SDS011;35163;48.878;18.040;2023-09-07T01:28:07;13.35;;;6.80;;
49296;SDS011;35163;48.878;18.040;2023-09-07T01:30:36;13.63;;;7.10;;
49296;SDS011;35163;48.878;18.040;2023-09-07T01:33:05;16.40;;;6.88;;
49296;SDS011;35163;48.878;18.040;2023-09-07T01:35:32;17.00;;;7.10;;
49296;SDS011;35163;48.878;18.040;2023-09-07T01:38:01;17.08;;;7.53;;
49296;SDS011;35163;48.878;18.040;2023-09-07T01:40:28;13.38;;;6.93;;
49296;SDS011;35163;48.878;18.040;2023-09-07T01:42:55;15.18;;;7.03;;
49296;SDS011;35163;48.878;18.040;2023-09-07T01:45:22;13.23;;;7.32;;
49296;SDS011;35163;48.878;18.040;2023-09-07T01:47:50;12.52;;;6.97;;
49296;SDS011;35163;48.878;18.040;2023-09-07T01:50:18;14.07;;;6.45;;
49296;SDS011;35163;48.878;18.040;2023-09-07T01:52:46;11.68;;;7.15;;
49296;SDS011;35163;48.878;18.040;2023-09-07T01:55:15;12.48;;;7.22;;
49296;SDS011;35163;48.878;18.040;2023-09-07T01:57:42;14.57;;;7.88;;
49296;SDS011;35163;48.878;18.040;2023-09-07T02:00:10;12.90;;;7.53;;
49296;SDS011;35163;48.878;18.040;2023-09-07T02:02:38;16.20;;;6.75;;
49296;SDS011;35163;48.878;18.040;2023-09-07T02:05:05;19.67;;;7.55;;
49296;SDS011;35163;48.878;18.040;2023-09-07T02:07:32;17.75;;;7.85;;
49296;SDS011;35163;48.878;18.040;2023-09-07T02:09:59;12.65;;;7.10;;
49296;SDS011;35163;48.878;18.040;2023-09-07T02:12:26;15.63;;;7.85;;
49296;SDS011;35163;48.878;18.040;2023-09-07T02:14:53;13.48;;;7.35;;
49296;SDS011;35163;48.878;18.040;2023-09-07T02:17:19;13.77;;;7.75;;
49296;SDS011;35163;48.878;18.040;2023-09-07T02:19:47;16.05;;;7.60;;
49296;SDS011;35163;48.878;18.040;2023-09-07T02:22:14;13.13;;;7.80;;
49296;SDS011;35163;48.878;18.040;2023-09-07T02:24:41;13.57;;;7.50;;
49296;SDS011;35163;48.878;18.040;2023-09-07T02:27:08;14.30;;;7.13;;
49296;SDS011;35163;48.878;18.040;2023-09-07T02:29:34;14.68;;;6.78;;
49296;SDS011;35163;48.878;18.040;2023-09-07T02:32:01;18.85;;;7.03;;
49296;SDS011;35163;48.878;18.040;2023-09-07T02:34:28;12.77;;;6.22;;
49296;SDS011;35163;48.878;18.040;2023-09-07T02:36:55;17.00;;;7.00;;
49296;SDS011;35163;48.878;18.040;2023-09-07T02:39:23;15.43;;;7.55;;
49296;SDS011;35163;48.878;18.040;2023-09-07T02:41:52;12.68;;;6.80;;
49296;SDS011;35163;48.878;18.040;2023-09-07T02:44:19;13.02;;;7.18;;
49296;SDS011;35163;48.878;18.040;2023-09-07T02:46:46;14.75;;;7.50;;
49296;SDS011;35163;48.878;18.040;2023-09-07T02:49:13;13.30;;;7.53;;
49296;SDS011;35163;48.878;18.040;2023-09-07T02:51:40;14.48;;;7.90;;
49296;SDS011;35163;48.878;18.040;2023-09-07T02:54:07;15.80;;;8.07;;
49296;SDS011;35163;48.878;18.040;2023-09-07T02:56:33;14.50;;;7.80;;
49296;SDS011;35163;48.878;18.040;2023-09-07T02:59:00;14.68;;;7.60;;
49296;SDS011;35163;48.878;18.040;2023-09-07T03:01:27;14.05;;;7.28;;
49296;SDS011;35163;48.878;18.040;2023-09-07T03:03:54;15.60;;;8.25;;
49296;SDS011;35163;48.878;18.040;2023-09-07T03:06:21;17.88;;;8.27;;
49296;SDS011;35163;48.878;18.040;2023-09-07T03:08:47;16.10;;;8.32;;
49296;SDS011;35163;48.878;18.040;2023-09-07T03:11:14;16.85;;;8.38;;
49296;SDS011;35163;48.878;18.040;2023-09-07T03:13:41;16.33;;;8.27;;
49296;SDS011;35163;48.878;18.040;2023-09-07T03:16:09;23.27;;;8.15;;
49296;SDS011;35163;48.878;18.040;2023-09-07T03:18:37;17.83;;;8.52;;
49296;SDS011;35163;48.878;18.040;2023-09-07T03:21:04;21.00;;;8.07;;
49296;SDS011;35163;48.878;18.040;2023-09-07T03:23:31;13.98;;;8.25;;
49296;SDS011;35163;48.878;18.040;2023-09-07T03:25:59;16.35;;;7.10;;
49296;SDS011;35163;48.878;18.040;2023-09-07T03:28:26;17.23;;;8.43;;
49296;SDS011;35163;48.878;18.040;2023-09-07T03:30:53;15.63;;;7.30;;
49296;SDS011;35163;48.878;18.040;2023-09-07T03:33:21;16.13;;;7.97;;
49296;SDS011;35163;48.878;18.040;2023-09-07T03:35:48;14.93;;;7.78;;
49296;SDS011;35163;48.878;18.040;2023-09-07T03:38:15;15.73;;;7.85;;
49296;SDS011;35163;48.878;18.040;2023-09-07T03:40:42;14.68;;;7.05;;
49296;SDS011;35163;48.878;18.040;2023-09-07T03:43:09;12.93;;;7.25;;
49296;SDS011;35163;48.878;18.040;2023-09-07T03:45:36;14.55;;;7.75;;
49296;SDS011;35163;48.878;18.040;2023-09-07T03:48:03;15.15;;;7.63;;
49296;SDS011;35163;48.878;18.040;2023-09-07T03:50:30;14.90;;;8.02;;
49296;SDS011;35163;48.878;18.040;2023-09-07T03:52:57;15.20;;;7.50;;
49296;SDS011;35163;48.878;18.040;2023-09-07T03:55:24;15.60;;;7.60;;
49296;SDS011;35163;48.878;18.040;2023-09-07T03:57:51;16.48;;;8.15;;
49296;SDS011;35163;48.878;18.040;2023-09-07T04:00:17;14.00;;;8.20;;
49296;SDS011;35163;48.878;18.040;2023-09-07T04:02:45;13.02;;;7.45;;
49296;SDS011;35163;48.878;18.040;2023-09-07T04:05:12;14.07;;;7.53;;
49296;SDS011;35163;48.878;18.040;2023-09-07T04:07:39;15.15;;;8.13;;
49296;SDS011;35163;48.878;18.040;2023-09-07T04:10:05;12.50;;;7.43;;
49296;SDS011;35163;48.878;18.040;2023-09-07T04:12:32;19.40;;;8.18;;
49296;SDS011;35163;48.878;18.040;2023-09-07T04:15:02;15.70;;;8.38;;
49296;SDS011;35163;48.878;18.040;2023-09-07T04:17:29;18.75;;;8.32;;
49296;SDS011;35163;48.878;18.040;2023-09-07T04:19:56;14.80;;;7.68;;
49296;SDS011;35163;48.878;18.040;2023-09-07T04:22:23;15.93;;;7.95;;
49296;SDS011;35163;48.878;18.040;2023-09-07T04:24:50;14.95;;;7.88;;
49296;SDS011;35163;48.878;18.040;2023-09-07T04:27:16;14.98;;;8.15;;
49296;SDS011;35163;48.878;18.040;2023-09-07T04:29:43;18.38;;;8.30;;
49296;SDS011;35163;48.878;18.040;2023-09-07T04:32:10;16.50;;;8.50;;
49296;SDS011;35163;48.878;18.040;2023-09-07T04:34:37;14.25;;;7.43;;
49296;SDS011;35163;48.878;18.040;2023-09-07T04:37:03;16.02;;;8.25;;
49296;SDS011;35163;48.878;18.040;2023-09-07T04:39:30;14.60;;;8.05;;
49296;SDS011;35163;48.878;18.040;2023-09-07T04:41:57;16.90;;;8.10;;
49296;SDS011;35163;48.878;18.040;2023-09-07T04:44:25;14.85;;;8.00;;
49296;SDS011;35163;48.878;18.040;2023-09-07T04:46:56;13.23;;;8.10;;
49296;SDS011;35163;48.878;18.040;2023-09-07T04:49:23;14.95;;;8.13;;
49296;SDS011;35163;48.878;18.040;2023-09-07T04:51:52;16.17;;;7.78;;
49296;SDS011;35163;48.878;18.040;2023-09-07T04:54:20;18.52;;;8.20;;
49296;SDS011;35163;48.878;18.040;2023-09-07T04:56:47;20.92;;;8.70;;
49296;SDS011;35163;48.878;18.040;2023-09-07T04:59:14;14.77;;;7.43;;
49296;SDS011;35163;48.878;18.040;2023-09-07T05:01:41;13.15;;;7.53;;
49296;SDS011;35163;48.878;18.040;2023-09-07T05:04:08;18.60;;;7.93;;
49296;SDS011;35163;48.878;18.040;2023-09-07T05:06:35;12.85;;;7.60;;
49296;SDS011;35163;48.878;18.040;2023-09-07T05:09:03;14.60;;;8.55;;
49296;SDS011;35163;48.878;18.040;2023-09-07T05:11:30;15.85;;;8.45;;
49296;SDS011;35163;48.878;18.040;2023-09-07T05:13:57;13.77;;;8.00;;
49296;SDS011;35163;48.878;18.040;2023-09-07T05:16:24;16.98;;;9.30;;
49296;SDS011;35163;48.878;18.040;2023-09-07T05:18:51;13.90;;;8.45;;
49296;SDS011;35163;48.878;18.040;2023-09-07T05:21:17;14.02;;;8.07;;
49296;SDS011;35163;48.878;18.040;2023-09-07T05:23:46;13.73;;;7.63;;
49296;SDS011;35163;48.878;18.040;2023-09-07T05:26:13;15.73;;;8.35;;
49296;SDS011;35163;48.878;18.040;2023-09-07T05:28:40;14.73;;;7.97;;
49296;SDS011;35163;48.878;18.040;2023-09-07T05:31:08;19.48;;;8.38;;
49296;SDS011;35163;48.878;18.040;2023-09-07T05:33:35;15.73;;;7.88;;
49296;SDS011;35163;48.878;18.040;2023-09-07T05:36:02;14.98;;;8.32;;
49296;SDS011;35163;48.878;18.040;2023-09-07T05:38:28;14.30;;;8.32;;
49296;SDS011;35163;48.878;18.040;2023-09-07T05:40:59;17.15;;;8.10;;
49296;SDS011;35163;48.878;18.040;2023-09-07T05:43:25;15.02;;;8.60;;
49296;SDS011;35163;48.878;18.040;2023-09-07T05:45:52;14.50;;;8.18;;
49296;SDS011;35163;48.878;18.040;2023-09-07T05:48:19;17.40;;;7.70;;
49296;SDS011;35163;48.878;18.040;2023-09-07T05:50:46;13.68;;;7.32;;
49296;SDS011;35163;48.878;18.040;2023-09-07T05:53:12;16.85;;;7.88;;
49296;SDS011;35163;48.878;18.040;2023-09-07T05:55:39;15.77;;;7.55;;
49296;SDS011;35163;48.878;18.040;2023-09-07T05:58:07;16.25;;;8.60;;
49296;SDS011;35163;48.878;18.040;2023-09-07T06:00:35;14.10;;;8.07;;
49296;SDS011;35163;48.878;18.040;2023-09-07T06:03:02;13.57;;;8.68;;
49296;SDS011;35163;48.878;18.040;2023-09-07T06:05:30;15.77;;;7.90;;
49296;SDS011;35163;48.878;18.040;2023-09-07T06:07:57;16.02;;;8.68;;
49296;SDS011;35163;48.878;18.040;2023-09-07T06:10:23;13.40;;;7.90;;
49296;SDS011;35163;48.878;18.040;2023-09-07T06:12:50;16.13;;;8.40;;
49296;SDS011;35163;48.878;18.040;2023-09-07T06:15:17;15.82;;;8.43;;
49296;SDS011;35163;48.878;18.040;2023-09-07T06:17:44;13.88;;;7.28;;
49296;SDS011;35163;48.878;18.040;2023-09-07T06:20:12;15.27;;;7.18;;
49296;SDS011;35163;48.878;18.040;2023-09-07T06:22:39;13.68;;;7.43;;
49296;SDS011;35163;48.878;18.040;2023-09-07T06:25:06;16.27;;;7.75;;
49296;SDS011;35163;48.878;18.040;2023-09-07T06:27:33;15.30;;;7.63;;
49296;SDS011;35163;48.878;18.040;2023-09-07T06:30:00;13.45;;;6.93;;
49296;SDS011;35163;48.878;18.040;2023-09-07T06:32:26;16.92;;;7.22;;
49296;SDS011;35163;48.878;18.040;2023-09-07T06:34:53;14.70;;;7.10;;
49296;SDS011;35163;48.878;18.040;2023-09-07T06:37:20;13.25;;;7.80;;
49296;SDS011;35163;48.878;18.040;2023-09-07T06:39:47;14.02;;;7.03;;
49296;SDS011;35163;48.878;18.040;2023-09-07T06:42:14;14.75;;;7.32;;
49296;SDS011;35163;48.878;18.040;2023-09-07T06:44:42;12.30;;;6.72;;
49296;SDS011;35163;48.878;18.040;2023-09-07T06:47:09;13.20;;;6.47;;
49296;SDS011;35163;48.878;18.040;2023-09-07T06:49:39;14.82;;;6.70;;
49296;SDS011;35163;48.878;18.040;2023-09-07T06:52:06;12.05;;;6.15;;
49296;SDS011;35163;48.878;18.040;2023-09-07T06:54:32;13.10;;;5.72;;
49296;SDS011;35163;48.878;18.040;2023-09-07T06:56:59;12.27;;;6.05;;
49296;SDS011;35163;48.878;18.040;2023-09-07T06:59:26;14.00;;;6.60;;
49296;SDS011;35163;48.878;18.040;2023-09-07T07:01:53;11.25;;;6.38;;
49296;SDS011;35163;48.878;18.040;2023-09-07T07:04:20;12.05;;;5.97;;
49296;SDS011;35163;48.878;18.040;2023-09-07T07:06:47;10.40;;;5.97;;
49296;SDS011;35163;48.878;18.040;2023-09-07T07:09:13;14.40;;;6.15;;
49296;SDS011;35163;48.878;18.040;2023-09-07T07:11:40;11.40;;;5.65;;
49296;SDS011;35163;48.878;18.040;2023-09-07T07:14:09;11.18;;;5.97;;
49296;SDS011;35163;48.878;18.040;2023-09-07T07:16:37;10.52;;;5.95;;
49296;SDS011;35163;48.878;18.040;2023-09-07T07:19:04;10.27;;;5.18;;
49296;SDS011;35163;48.878;18.040;2023-09-07T07:21:31;11.60;;;5.15;;
49296;SDS011;35163;48.878;18.040;2023-09-07T07:23:58;14.82;;;4.57;;
49296;SDS011;35163;48.878;18.040;2023-09-07T07:26:24;13.93;;;5.00;;
49296;SDS011;35163;48.878;18.040;2023-09-07T07:28:51;9.43;;;5.03;;
49296;SDS011;35163;48.878;18.040;2023-09-07T07:31:18;10.80;;;4.85;;
49296;SDS011;35163;48.878;18.040;2023-09-07T07:33:45;9.68;;;4.80;;
49296;SDS011;35163;48.878;18.040;2023-09-07T07:36:14;11.57;;;4.65;;
49296;SDS011;35163;48.878;18.040;2023-09-07T07:38:41;17.15;;;5.88;;
49296;SDS011;35163;48.878;18.040;2023-09-07T07:41:08;13.05;;;4.47;;
49296;SDS011;35163;48.878;18.040;2023-09-07T07:43:35;11.52;;;5.35;;
49296;SDS011;35163;48.878;18.040;2023-09-07T07:46:02;11.77;;;5.53;;
49296;SDS011;35163;48.878;18.040;2023-09-07T07:48:29;12.68;;;5.90;;
49296;SDS011;35163;48.878;18.040;2023-09-07T07:50:56;10.18;;;5.47;;
49296;SDS011;35163;48.878;18.040;2023-09-07T07:53:22;14.23;;;5.30;;
49296;SDS011;35163;48.878;18.040;2023-09-07T07:55:50;11.95;;;5.32;;
49296;SDS011;35163;48.878;18.040;2023-09-07T07:58:17;10.57;;;4.88;;
49296;SDS011;35163;48.878;18.040;2023-09-07T08:00:44;13.02;;;4.80;;
49296;SDS011;35163;48.878;18.040;2023-09-07T08:03:14;9.55;;;4.75;;
49296;SDS011;35163;48.878;18.040;2023-09-07T08:05:41;11.30;;;5.57;;
49296;SDS011;35163;48.878;18.040;2023-09-07T08:08:09;10.77;;;4.82;;
49296;SDS011;35163;48.878;18.040;2023-09-07T08:10:36;8.10;;;4.53;;
49296;SDS011;35163;48.878;18.040;2023-09-07T08:13:04;11.45;;;4.72;;
49296;SDS011;35163;48.878;18.040;2023-09-07T08:15:33;9.05;;;4.55;;
49296;SDS011;35163;48.878;18.040;2023-09-07T08:18:00;12.60;;;4.40;;
49296;SDS011;35163;48.878;18.040;2023-09-07T08:20:28;8.00;;;3.83;;
49296;SDS011;35163;48.878;18.040;2023-09-07T08:22:56;11.38;;;4.43;;
49296;SDS011;35163;48.878;18.040;2023-09-07T08:25:24;8.70;;;4.32;;
49296;SDS011;35163;48.878;18.040;2023-09-07T08:27:52;10.70;;;4.50;;
49296;SDS011;35163;48.878;18.040;2023-09-07T08:30:24;10.15;;;4.20;;
49296;SDS011;35163;48.878;18.040;2023-09-07T08:32:52;7.60;;;3.83;;
49296;SDS011;35163;48.878;18.040;2023-09-07T08:35:19;8.02;;;4.00;;
49296;SDS011;35163;48.878;18.040;2023-09-07T08:37:46;7.78;;;3.72;;
49296;SDS011;35163;48.878;18.040;2023-09-07T08:40:13;11.32;;;4.40;;
49296;SDS011;35163;48.878;18.040;2023-09-07T08:42:40;9.13;;;4.20;;
49296;SDS011;35163;48.878;18.040;2023-09-07T08:45:08;9.15;;;3.80;;
49296;SDS011;35163;48.878;18.040;2023-09-07T08:47:35;10.45;;;4.03;;
49296;SDS011;35163;48.878;18.040;2023-09-07T08:50:04;10.90;;;4.10;;
49296;SDS011;35163;48.878;18.040;2023-09-07T08:52:35;8.57;;;4.05;;
49296;SDS011;35163;48.878;18.040;2023-09-07T08:55:02;8.45;;;4.30;;
49296;SDS011;35163;48.878;18.040;2023-09-07T08:57:31;7.85;;;4.07;;
49296;SDS011;35163;48.878;18.040;2023-09-07T08:59:58;8.50;;;3.90;;
49296;SDS011;35163;48.878;18.040;2023-09-07T09:02:25;8.70;;;4.15;;
49296;SDS011;35163;48.878;18.040;2023-09-07T09:04:53;8.60;;;4.43;;
49296;SDS011;35163;48.878;18.040;2023-09-07T09:07:20;10.07;;;4.05;;
49296;SDS011;35163;48.878;18.040;2023-09-07T09:09:48;11.02;;;4.97;;
49296;SDS011;35163;48.878;18.040;2023-09-07T09:12:16;9.63;;;4.78;;
49296;SDS011;35163;48.878;18.040;2023-09-07T09:14:44;7.63;;;4.07;;
49296;SDS011;35163;48.878;18.040;2023-09-07T09:17:14;8.10;;;4.53;;
49296;SDS011;35163;48.878;18.040;2023-09-07T09:19:41;11.00;;;4.40;;
49296;SDS011;35163;48.878;18.040;2023-09-07T09:22:09;8.20;;;3.58;;
49296;SDS011;35163;48.878;18.040;2023-09-07T09:24:37;9.25;;;3.83;;
49296;SDS011;35163;48.878;18.040;2023-09-07T09:27:04;7.20;;;3.50;;
49296;SDS011;35163;48.878;18.040;2023-09-07T09:29:34;9.20;;;3.83;;
49296;SDS011;35163;48.878;18.040;2023-09-07T09:32:05;10.60;;;3.90;;
49296;SDS011;35163;48.878;18.040;2023-09-07T09:34:33;10.40;;;4.22;;
49296;SDS011;35163;48.878;18.040;2023-09-07T09:37:02;8.48;;;3.80;;
49296;SDS011;35163;48.878;18.040;2023-09-07T09:39:32;6.90;;;3.35;;
49296;SDS011;35163;48.878;18.040;2023-09-07T09:42:00;7.97;;;3.50;;
49296;SDS011;35163;48.878;18.040;2023-09-07T09:44:29;7.85;;;3.80;;
49296;SDS011;35163;48.878;18.040;2023-09-07T09:46:56;6.70;;;3.35;;
49296;SDS011;35163;48.878;18.040;2023-09-07T09:49:25;5.85;;;2.97;;
49296;SDS011;35163;48.878;18.040;2023-09-07T09:51:53;5.75;;;3.15;;
49296;SDS011;35163;48.878;18.040;2023-09-07T09:54:23;6.90;;;3.53;;
49296;SDS011;35163;48.878;18.040;2023-09-07T09:56:50;7.30;;;3.40;;
49296;SDS011;35163;48.878;18.040;2023-09-07T09:59:17;7.30;;;3.42;;
49296;SDS011;35163;48.878;18.040;2023-09-07T10:01:45;8.27;;;3.65;;
49296;SDS011;35163;48.878;18.040;2023-09-07T10:04:14;7.13;;;3.40;;
49296;SDS011;35163;48.878;18.040;2023-09-07T10:06:56;8.95;;;3.13;;
49296;SDS011;35163;48.878;18.040;2023-09-07T10:09:29;10.43;;;3.40;;
49296;SDS011;35163;48.878;18.040;2023-09-07T10:11:59;7.93;;;3.35;;
49296;SDS011;35163;48.878;18.040;2023-09-07T10:14:37;8.07;;;3.40;;
49296;SDS011;35163;48.878;18.040;2023-09-07T10:17:07;8.10;;;3.33;;
49296;SDS011;35163;48.878;18.040;2023-09-07T10:19:36;7.55;;;3.33;;
49296;SDS011;35163;48.878;18.040;2023-09-07T10:22:04;7.03;;;2.95;;
49296;SDS011;35163;48.878;18.040;2023-09-07T10:24:32;8.15;;;3.05;;
49296;SDS011;35163;48.878;18.040;2023-09-07T10:27:03;7.53;;;3.15;;
49296;SDS011;35163;48.878;18.040;2023-09-07T10:29:46;6.85;;;3.00;;
49296;SDS011;35163;48.878;18.040;2023-09-07T10:32:22;7.50;;;3.35;;
49296;SDS011;35163;48.878;18.040;2023-09-07T10:34:49;6.82;;;2.88;;
49296;SDS011;35163;48.878;18.040;2023-09-07T10:37:16;6.80;;;2.88;;
49296;SDS011;35163;48.878;18.040;2023-09-07T10:39:44;6.05;;;3.33;;
49296;SDS011;35163;48.878;18.040;2023-09-07T10:42:24;7.55;;;2.90;;
49296;SDS011;35163;48.878;18.040;2023-09-07T10:44:52;7.57;;;3.60;;
49296;SDS011;35163;48.878;18.040;2023-09-07T10:47:19;7.82;;;3.35;;
49296;SDS011;35163;48.878;18.040;2023-09-07T10:49:46;6.78;;;3.50;;
49296;SDS011;35163;48.878;18.040;2023-09-07T10:52:13;8.25;;;3.85;;
49296;SDS011;35163;48.878;18.040;2023-09-07T10:54:40;7.63;;;3.13;;
49296;SDS011;35163;48.878;18.040;2023-09-07T10:57:07;7.60;;;3.25;;
49296;SDS011;35163;48.878;18.040;2023-09-07T10:59:35;7.13;;;3.33;;
49296;SDS011;35163;48.878;18.040;2023-09-07T11:02:03;8.05;;;2.97;;
49296;SDS011;35163;48.878;18.040;2023-09-07T11:04:33;7.45;;;3.10;;
49296;SDS011;35163;48.878;18.040;2023-09-07T11:07:00;6.00;;;2.97;;
49296;SDS011;35163;48.878;18.040;2023-09-07T11:09:29;5.68;;;2.90;;
49296;SDS011;35163;48.878;18.040;2023-09-07T11:11:57;7.70;;;3.28;;
49296;SDS011;35163;48.878;18.040;2023-09-07T11:14:30;8.18;;;3.08;;
49296;SDS011;35163;48.878;18.040;2023-09-07T11:16:57;6.32;;;3.08;;
49296;SDS011;35163;48.878;18.040;2023-09-07T11:19:23;5.90;;;2.88;;
49296;SDS011;35163;48.878;18.040;2023-09-07T11:21:53;7.18;;;3.40;;
49296;SDS011;35163;48.878;18.040;2023-09-07T11:24:20;6.78;;;3.05;;
49296;SDS011;35163;48.878;18.040;2023-09-07T11:26:47;6.55;;;3.20;;
49296;SDS011;35163;48.878;18.040;2023-09-07T11:29:14;8.70;;;3.40;;
49296;SDS011;35163;48.878;18.040;2023-09-07T11:31:42;6.97;;;3.20;;
49296;SDS011;35163;48.878;18.040;2023-09-07T11:34:10;5.78;;;3.28;;
49296;SDS011;35163;48.878;18.040;2023-09-07T11:36:38;6.72;;;3.30;;
49296;SDS011;35163;48.878;18.040;2023-09-07T11:39:06;6.63;;;3.33;;
49296;SDS011;35163;48.878;18.040;2023-09-07T11:41:42;7.22;;;3.15;;
49296;SDS011;35163;48.878;18.040;2023-09-07T11:44:10;5.82;;;2.95;;
49296;SDS011;35163;48.878;18.040;2023-09-07T11:46:39;5.75;;;3.13;;
49296;SDS011;35163;48.878;18.040;2023-09-07T11:49:06;6.13;;;3.25;;
49296;SDS011;35163;48.878;18.040;2023-09-07T11:51:36;8.35;;;3.95;;
49296;SDS011;35163;48.878;18.040;2023-09-07T11:54:03;10.60;;;4.43;;
49296;SDS011;35163;48.878;18.040;2023-09-07T11:56:31;6.88;;;3.50;;
49296;SDS011;35163;48.878;18.040;2023-09-07T11:58:58;9.88;;;3.15;;
49296;SDS011;35163;48.878;18.040;2023-09-07T12:01:25;9.93;;;3.88;;
49296;SDS011;35163;48.878;18.040;2023-09-07T12:03:54;5.68;;;3.03;;
49296;SDS011;35163;48.878;18.040;2023-09-07T12:06:21;8.38;;;3.55;;
49296;SDS011;35163;48.878;18.040;2023-09-07T12:09:02;5.47;;;2.80;;
49296;SDS011;35163;48.878;18.040;2023-09-07T12:11:30;5.97;;;3.28;;
49296;SDS011;35163;48.878;18.040;2023-09-07T12:13:57;5.18;;;2.90;;
49296;SDS011;35163;48.878;18.040;2023-09-07T12:16:25;5.95;;;3.20;;
49296;SDS011;35163;48.878;18.040;2023-09-07T12:18:53;6.85;;;2.95;;
49296;SDS011;35163;48.878;18.040;2023-09-07T12:21:20;6.32;;;2.72;;
49296;SDS011;35163;48.878;18.040;2023-09-07T12:23:47;5.72;;;3.30;;
49296;SDS011;35163;48.878;18.040;2023-09-07T12:26:14;5.60;;;3.08;;
49296;SDS011;35163;48.878;18.040;2023-09-07T12:28:43;6.43;;;2.90;;
49296;SDS011;35163;48.878;18.040;2023-09-07T12:31:11;6.43;;;3.30;;
49296;SDS011;35163;48.878;18.040;2023-09-07T12:33:38;8.23;;;3.45;;
49296;SDS011;35163;48.878;18.040;2023-09-07T12:36:05;6.50;;;3.17;;
49296;SDS011;35163;48.878;18.040;2023-09-07T12:38:35;9.50;;;3.42;;
49296;SDS011;35163;48.878;18.040;2023-09-07T12:41:02;6.53;;;3.33;;
49296;SDS011;35163;48.878;18.040;2023-09-07T12:43:29;6.10;;;2.85;;
49296;SDS011;35163;48.878;18.040;2023-09-07T12:45:56;8.60;;;3.35;;
49296;SDS011;35163;48.878;18.040;2023-09-07T12:48:23;6.63;;;2.83;;
49296;SDS011;35163;48.878;18.040;2023-09-07T12:50:50;5.32;;;2.72;;
49296;SDS011;35163;48.878;18.040;2023-09-07T12:53:17;6.15;;;2.80;;
49296;SDS011;35163;48.878;18.040;2023-09-07T12:55:45;5.43;;;2.63;;
49296;SDS011;35163;48.878;18.040;2023-09-07T12:58:12;6.13;;;2.80;;
49296;SDS011;35163;48.878;18.040;2023-09-07T13:00:39;5.45;;;3.10;;
49296;SDS011;35163;48.878;18.040;2023-09-07T13:03:06;4.53;;;2.75;;
49296;SDS011;35163;48.878;18.040;2023-09-07T13:05:33;6.18;;;3.00;;
49296;SDS011;35163;48.878;18.040;2023-09-07T13:08:00;6.20;;;3.08;;
49296;SDS011;35163;48.878;18.040;2023-09-07T13:10:29;7.18;;;3.55;;
49296;SDS011;35163;48.878;18.040;2023-09-07T13:12:55;6.15;;;3.30;;
49296;SDS011;35163;48.878;18.040;2023-09-07T13:15:22;5.90;;;3.17;;
49296;SDS011;35163;48.878;18.040;2023-09-07T13:17:49;5.90;;;3.25;;
49296;SDS011;35163;48.878;18.040;2023-09-07T13:20:16;5.82;;;3.10;;
49296;SDS011;35163;48.878;18.040;2023-09-07T13:22:42;7.10;;;3.13;;
49296;SDS011;35163;48.878;18.040;2023-09-07T13:25:09;10.00;;;3.30;;
49296;SDS011;35163;48.878;18.040;2023-09-07T13:27:36;6.75;;;3.05;;
49296;SDS011;35163;48.878;18.040;2023-09-07T13:30:03;5.25;;;2.78;;
49296;SDS011;35163;48.878;18.040;2023-09-07T13:32:32;5.68;;;3.03;;
49296;SDS011;35163;48.878;18.040;2023-09-07T13:34:59;6.03;;;3.03;;
49296;SDS011;35163;48.878;18.040;2023-09-07T13:37:26;6.18;;;3.00;;
49296;SDS011;35163;48.878;18.040;2023-09-07T13:39:53;6.60;;;3.20;;
49296;SDS011;35163;48.878;18.040;2023-09-07T13:42:20;6.38;;;2.97;;
49296;SDS011;35163;48.878;18.040;2023-09-07T13:44:46;7.10;;;2.63;;
49296;SDS011;35163;48.878;18.040;2023-09-07T13:47:14;7.00;;;3.00;;
49296;SDS011;35163;48.878;18.040;2023-09-07T13:49:40;5.25;;;2.78;;
49296;SDS011;35163;48.878;18.040;2023-09-07T13:52:07;9.45;;;4.40;;
49296;SDS011;35163;48.878;18.040;2023-09-07T13:54:34;6.60;;;2.75;;
49296;SDS011;35163;48.878;18.040;2023-09-07T13:57:00;4.45;;;2.72;;
49296;SDS011;35163;48.878;18.040;2023-09-07T13:59:27;6.45;;;3.10;;
49296;SDS011;35163;48.878;18.040;2023-09-07T14:01:59;5.70;;;3.00;;
49296;SDS011;35163;48.878;18.040;2023-09-07T14:04:26;7.95;;;2.72;;
49296;SDS011;35163;48.878;18.040;2023-09-07T14:06:53;7.38;;;3.13;;
49296;SDS011;35163;48.878;18.040;2023-09-07T14:09:20;6.13;;;3.08;;
49296;SDS011;35163;48.878;18.040;2023-09-07T14:11:49;13.93;;;3.25;;
49296;SDS011;35163;48.878;18.040;2023-09-07T14:14:16;5.35;;;3.00;;
49296;SDS011;35163;48.878;18.040;2023-09-07T14:16:44;6.82;;;3.25;;
49296;SDS011;35163;48.878;18.040;2023-09-07T14:19:11;7.95;;;3.85;;
49296;SDS011;35163;48.878;18.040;2023-09-07T14:21:38;9.98;;;3.58;;
49296;SDS011;35163;48.878;18.040;2023-09-07T14:24:05;6.97;;;3.70;;
49296;SDS011;35163;48.878;18.040;2023-09-07T14:26:32;6.28;;;3.05;;
49296;SDS011;35163;48.878;18.040;2023-09-07T14:28:58;8.85;;;3.10;;